Time;durP1;ratioP1;P1;durP2;ratioP2;P2;SDS_P1;SDS_P2;PMS_P1;PMS_P2;Temp;Humidity;BMP_temperature;BMP_pressure;BME280_temperature;BME280_humidity;BME280_pressure;Samples;Min_cycle;Max_cycle;Signal;HPM_P1;HPM_P2
2022/12/24 00:00:56;;;;;;;20.92;8.63;;;;;;;;;;4972056;28;20469;-56
2022/12/24 00:03:21;;;;;;;21.58;11.50;;;;;;;;;;4972612;28;20038;-56
2022/12/24 00:05:46;;;;;;;30.33;15.50;;;;;;;;;;4971764;28;20042;-57
2022/12/24 00:08:12;;;;;;;40.20;18.27;;;;;;;;;;4970745;28;20037;-57
2022/12/24 00:10:37;;;;;;;47.53;21.40;;;;;;;;;;4971231;28;20481;-56
2022/12/24 00:13:02;;;;;;;59.42;24.88;;;;;;;;;;4969370;28;20805;-56
2022/12/24 00:15:28;;;;;;;83.03;29.83;;;;;;;;;;4972272;28;20538;-57
2022/12/24 00:17:53;;;;;;;66.18;25.95;;;;;;;;;;4971476;28;20466;-57
2022/12/24 00:20:18;;;;;;;55.03;22.13;;;;;;;;;;4973399;28;20045;-57
2022/12/24 00:22:44;;;;;;;40.25;16.42;;;;;;;;;;4971614;28;20049;-57
2022/12/24 00:25:09;;;;;;;40.10;15.07;;;;;;;;;;4971374;28;20098;-57
2022/12/24 00:27:34;;;;;;;35.35;13.50;;;;;;;;;;4971918;28;20098;-57
2022/12/24 00:30:00;;;;;;;25.65;10.27;;;;;;;;;;4980677;28;20409;-55
2022/12/24 00:32:25;;;;;;;23.33;10.75;;;;;;;;;;4973108;28;20042;-56
2022/12/24 00:34:50;;;;;;;20.67;6.90;;;;;;;;;;4969991;28;20043;-56
2022/12/24 00:37:16;;;;;;;13.43;5.15;;;;;;;;;;4973807;28;20081;-54
2022/12/24 00:39:41;;;;;;;17.40;5.47;;;;;;;;;;4977634;28;20086;-56
2022/12/24 00:42:06;;;;;;;14.65;4.57;;;;;;;;;;4978091;28;20041;-57
2022/12/24 00:44:31;;;;;;;14.95;3.70;;;;;;;;;;4981587;28;20034;-56
2022/12/24 00:46:57;;;;;;;13.27;3.20;;;;;;;;;;4977768;28;20035;-57
2022/12/24 00:49:22;;;;;;;14.82;3.20;;;;;;;;;;4975787;28;20488;-57
2022/12/24 00:51:47;;;;;;;9.85;3.17;;;;;;;;;;4980014;28;20102;-53
2022/12/24 00:54:13;;;;;;;11.20;3.13;;;;;;;;;;4981880;28;20831;-55
2022/12/24 00:56:38;;;;;;;19.27;3.55;;;;;;;;;;4973690;28;20051;-55
2022/12/24 00:59:04;;;;;;;13.07;2.92;;;;;;;;;;4975320;28;20113;-54
2022/12/24 01:01:29;;;;;;;10.70;2.97;;;;;;;;;;4971777;28;20820;-57
2022/12/24 01:06:38;;;;;;;14.30;3.10;;;;;;;;;;4974496;28;20125;-56
2022/12/24 01:09:03;;;;;;;16.85;3.30;;;;;;;;;;4975709;28;20110;-57
2022/12/24 01:11:28;;;;;;;14.52;3.53;;;;;;;;;;4975105;28;20096;-55
2022/12/24 01:13:55;;;;;;;18.30;3.30;;;;;;;;;;4974280;28;20469;-57
2022/12/24 01:16:21;;;;;;;10.68;3.20;;;;;;;;;;4977141;28;20062;-57
2022/12/24 01:18:46;;;;;;;14.38;2.88;;;;;;;;;;4975611;28;20106;-56
2022/12/24 01:21:12;;;;;;;12.77;3.08;;;;;;;;;;4974839;28;20126;-57
2022/12/24 01:23:37;;;;;;;17.08;3.25;;;;;;;;;;4973699;28;20049;-56
2022/12/24 01:26:03;;;;;;;11.55;3.03;;;;;;;;;;4964788;28;20125;-57
2022/12/24 01:28:29;;;;;;;12.20;3.10;;;;;;;;;;4971654;28;20101;-56
2022/12/24 01:30:54;;;;;;;14.13;2.90;;;;;;;;;;4971418;28;20034;-55
2022/12/24 01:33:20;;;;;;;17.08;3.05;;;;;;;;;;4976608;28;20035;-54
2022/12/24 01:35:45;;;;;;;19.90;3.88;;;;;;;;;;4974581;28;20122;-57
2022/12/24 01:38:11;;;;;;;15.23;3.15;;;;;;;;;;4973504;28;20571;-56
2022/12/24 01:43:27;;;;;;;12.77;2.60;;;;;;;;;;4972548;28;20134;-55
2022/12/24 01:45:52;;;;;;;18.70;3.30;;;;;;;;;;4975149;28;20520;-57
2022/12/24 01:48:18;;;;;;;24.08;3.83;;;;;;;;;;4971856;28;20030;-58
2022/12/24 01:50:43;;;;;;;17.95;2.75;;;;;;;;;;4972031;28;20058;-59
2022/12/24 01:53:09;;;;;;;13.70;3.17;;;;;;;;;;4971953;28;20800;-60
2022/12/24 01:55:34;;;;;;;16.25;3.25;;;;;;;;;;4983546;28;20482;-58
2022/12/24 01:58:02;;;;;;;9.88;3.10;;;;;;;;;;4977204;28;20034;-58
2022/12/24 02:00:27;;;;;;;15.75;3.35;;;;;;;;;;4978728;28;20049;-58
2022/12/24 02:02:53;;;;;;;9.25;2.80;;;;;;;;;;4975929;28;20038;-58
2022/12/24 02:05:25;;;;;;;14.10;3.20;;;;;;;;;;4975157;28;20042;-57
2022/12/24 02:07:51;;;;;;;17.15;3.90;;;;;;;;;;4974967;28;20035;-58
2022/12/24 02:10:16;;;;;;;18.63;4.00;;;;;;;;;;4973842;28;20038;-58
2022/12/24 02:12:42;;;;;;;14.85;3.40;;;;;;;;;;4973131;28;20106;-57
2022/12/24 02:15:09;;;;;;;16.05;3.45;;;;;;;;;;4973962;28;20035;-57
2022/12/24 02:17:47;;;;;;;18.08;3.55;;;;;;;;;;4975661;28;20034;-58
2022/12/24 02:20:42;;;;;;;11.05;3.13;;;;;;;;;;4971082;28;20046;-58
2022/12/24 02:23:28;;;;;;;16.02;3.42;;;;;;;;;;4974346;28;20555;-57
2022/12/24 02:26:16;;;;;;;14.27;3.33;;;;;;;;;;4975701;28;20027;-56
2022/12/24 02:28:41;;;;;;;17.73;3.17;;;;;;;;;;4968379;28;20043;-55
2022/12/24 02:31:22;;;;;;;14.13;2.80;;;;;;;;;;4978326;28;20096;-57
2022/12/24 02:33:56;;;;;;;15.88;3.08;;;;;;;;;;4986668;28;20175;-57
2022/12/24 02:36:24;;;;;;;18.30;2.92;;;;;;;;;;4974310;28;20038;-56
2022/12/24 02:39:09;;;;;;;16.40;3.65;;;;;;;;;;4973651;28;20026;-55
2022/12/24 02:44:23;;;;;;;10.27;3.15;;;;;;;;;;4977359;28;20056;-57
2022/12/24 02:46:49;;;;;;;16.60;3.30;;;;;;;;;;4973884;28;20508;-56
2022/12/24 02:49:14;;;;;;;18.27;3.50;;;;;;;;;;4973464;28;20552;-54
2022/12/24 02:51:40;;;;;;;13.25;2.63;;;;;;;;;;4987976;28;20031;-54
2022/12/24 02:54:05;;;;;;;20.27;3.20;;;;;;;;;;4972946;28;20088;-56
2022/12/24 02:56:34;;;;;;;22.80;3.88;;;;;;;;;;4973078;28;21851;-58
2022/12/24 02:59:08;;;;;;;18.60;4.72;;;;;;;;;;4969847;28;20146;-50
2022/12/24 03:01:39;;;;;;;16.50;3.75;;;;;;;;;;4970618;28;20141;-54
2022/12/24 03:04:20;;;;;;;12.93;3.10;;;;;;;;;;4970889;28;20042;-56
2022/12/24 03:06:50;;;;;;;15.85;3.25;;;;;;;;;;4973226;28;20039;-57
2022/12/24 03:09:26;;;;;;;27.65;3.72;;;;;;;;;;4970930;28;20038;-57
2022/12/24 03:12:02;;;;;;;17.40;3.55;;;;;;;;;;4969992;28;20030;-57
2022/12/24 03:14:28;;;;;;;17.50;3.10;;;;;;;;;;4971412;28;20038;-55
2022/12/24 03:16:55;;;;;;;20.23;3.20;;;;;;;;;;4972539;28;20118;-56
2022/12/24 03:19:21;;;;;;;22.17;3.42;;;;;;;;;;4973476;28;20039;-56
2022/12/24 03:21:47;;;;;;;23.40;3.65;;;;;;;;;;4974125;28;20043;-55
2022/12/24 03:24:12;;;;;;;19.23;3.55;;;;;;;;;;4973099;28;20034;-55
2022/12/24 03:26:38;;;;;;;23.08;3.45;;;;;;;;;;4972468;28;20023;-56
2022/12/24 03:29:05;;;;;;;30.05;3.47;;;;;;;;;;4972292;28;20031;-56
2022/12/24 03:31:44;;;;;;;23.88;4.18;;;;;;;;;;4985299;28;20748;-54
2022/12/24 03:34:10;;;;;;;21.40;3.70;;;;;;;;;;4971134;28;20065;-55
2022/12/24 03:36:35;;;;;;;20.05;3.55;;;;;;;;;;4981869;28;20062;-56
2022/12/24 03:39:00;;;;;;;16.55;3.60;;;;;;;;;;4973501;28;20030;-54
2022/12/24 03:41:27;;;;;;;15.27;3.55;;;;;;;;;;4980721;28;20142;-53
2022/12/24 03:43:52;;;;;;;25.33;4.60;;;;;;;;;;4970949;28;20088;-53
2022/12/24 03:46:17;;;;;;;20.55;3.45;;;;;;;;;;4973894;28;20825;-56
2022/12/24 03:48:42;;;;;;;15.10;3.45;;;;;;;;;;4971019;28;20030;-55
2022/12/24 03:51:15;;;;;;;19.27;3.65;;;;;;;;;;4972991;28;20037;-55
2022/12/24 03:53:41;;;;;;;14.88;3.38;;;;;;;;;;4973089;28;20035;-54
2022/12/24 03:56:06;;;;;;;19.58;3.60;;;;;;;;;;4973827;28;20405;-53
2022/12/24 03:58:31;;;;;;;11.70;3.25;;;;;;;;;;4973233;28;20105;-55
2022/12/24 04:00:56;;;;;;;12.73;3.20;;;;;;;;;;4974356;28;20031;-55
2022/12/24 04:03:22;;;;;;;17.55;4.25;;;;;;;;;;4974665;28;20026;-53
2022/12/24 04:05:47;;;;;;;13.88;3.63;;;;;;;;;;4969584;28;20445;-53
2022/12/24 04:08:12;;;;;;;16.80;3.67;;;;;;;;;;4972348;28;20022;-53
2022/12/24 04:10:38;;;;;;;19.27;3.83;;;;;;;;;;4971173;28;20038;-55
2022/12/24 04:13:03;;;;;;;18.13;4.05;;;;;;;;;;4971413;28;20500;-57
2022/12/24 04:15:28;;;;;;;18.83;4.03;;;;;;;;;;4973218;28;20485;-53
2022/12/24 04:17:53;;;;;;;18.52;4.53;;;;;;;;;;4969480;28;20023;-55
2022/12/24 04:20:19;;;;;;;21.92;5.50;;;;;;;;;;4972206;28;20039;-51
2022/12/24 04:22:44;;;;;;;23.25;4.63;;;;;;;;;;4970262;28;20038;-53
2022/12/24 04:25:09;;;;;;;14.48;3.95;;;;;;;;;;4970966;28;20033;-50
2022/12/24 04:27:35;;;;;;;16.40;4.03;;;;;;;;;;4973419;28;20026;-51
2022/12/24 04:30:00;;;;;;;16.25;3.40;;;;;;;;;;4987258;28;20065;-55
2022/12/24 04:32:25;;;;;;;20.88;3.72;;;;;;;;;;4967960;28;20026;-55
2022/12/24 04:34:51;;;;;;;31.15;4.30;;;;;;;;;;4972352;28;20093;-54
2022/12/24 04:37:16;;;;;;;18.58;3.50;;;;;;;;;;4970121;28;20031;-52
2022/12/24 04:39:41;;;;;;;31.27;4.55;;;;;;;;;;4987116;28;20090;-57
2022/12/24 04:42:07;;;;;;;27.20;4.43;;;;;;;;;;4971422;28;20055;-58
2022/12/24 04:44:32;;;;;;;20.40;3.78;;;;;;;;;;4968513;28;20027;-56
2022/12/24 04:46:57;;;;;;;21.10;4.00;;;;;;;;;;4968638;28;20031;-57
2022/12/24 04:49:22;;;;;;;30.25;4.68;;;;;;;;;;4971810;28;20756;-57
2022/12/24 04:51:48;;;;;;;16.42;3.60;;;;;;;;;;4968454;28;20040;-58
2022/12/24 04:54:13;;;;;;;15.65;3.55;;;;;;;;;;4959194;28;20113;-58
2022/12/24 04:56:38;;;;;;;23.35;4.30;;;;;;;;;;4956620;28;20037;-58
2022/12/24 04:59:04;;;;;;;24.75;4.32;;;;;;;;;;4972593;28;20034;-58
2022/12/24 05:01:30;;;;;;;23.25;3.95;;;;;;;;;;4972894;28;20070;-60
2022/12/24 05:03:56;;;;;;;19.60;4.00;;;;;;;;;;4971925;28;20026;-58
2022/12/24 05:06:23;;;;;;;26.17;4.20;;;;;;;;;;4972635;28;20042;-58
2022/12/24 05:08:48;;;;;;;28.15;4.22;;;;;;;;;;4971488;28;20037;-58
2022/12/24 05:11:14;;;;;;;29.33;4.47;;;;;;;;;;4972305;28;20030;-58
2022/12/24 05:13:40;;;;;;;22.50;4.57;;;;;;;;;;4971936;28;20043;-58
2022/12/24 05:16:05;;;;;;;23.35;3.90;;;;;;;;;;4967182;28;20035;-58
2022/12/24 05:18:31;;;;;;;17.55;3.55;;;;;;;;;;4969723;28;20027;-57
2022/12/24 05:20:56;;;;;;;22.85;4.03;;;;;;;;;;4970152;28;20038;-59
2022/12/24 05:26:25;;;;;;;17.17;3.20;;;;;;;;;;4974384;28;20117;-58
2022/12/24 05:28:51;;;;;;;23.75;3.53;;;;;;;;;;4975766;28;20069;-59
2022/12/24 05:31:17;;;;;;;20.80;3.80;;;;;;;;;;4974939;28;20046;-58
2022/12/24 05:33:43;;;;;;;22.08;4.47;;;;;;;;;;4974486;28;20070;-58
2022/12/24 05:36:08;;;;;;;17.73;4.10;;;;;;;;;;4975001;28;20045;-58
2022/12/24 05:38:33;;;;;;;24.60;4.55;;;;;;;;;;4981844;28;20038;-57
2022/12/24 05:40:59;;;;;;;25.50;4.25;;;;;;;;;;4975064;28;20050;-58
2022/12/24 05:43:24;;;;;;;22.58;4.10;;;;;;;;;;4981256;28;20027;-55
2022/12/24 05:45:50;;;;;;;15.00;4.05;;;;;;;;;;4974371;28;20476;-57
2022/12/24 05:48:15;;;;;;;24.13;4.13;;;;;;;;;;4972546;28;20038;-54
2022/12/24 05:50:40;;;;;;;24.00;3.95;;;;;;;;;;4980503;28;20027;-58
2022/12/24 05:53:06;;;;;;;19.98;3.95;;;;;;;;;;4981681;28;20465;-57
2022/12/24 05:55:32;;;;;;;26.42;4.57;;;;;;;;;;4976756;28;20045;-57
2022/12/24 05:57:57;;;;;;;17.17;4.13;;;;;;;;;;4973125;28;20053;-58
2022/12/24 06:00:23;;;;;;;18.33;4.50;;;;;;;;;;4973429;28;20464;-58
2022/12/24 06:02:48;;;;;;;15.70;3.97;;;;;;;;;;4971827;28;20031;-56
2022/12/24 06:05:13;;;;;;;15.80;4.00;;;;;;;;;;4974155;28;20422;-56
2022/12/24 06:07:38;;;;;;;19.55;5.20;;;;;;;;;;4976345;28;20041;-58
2022/12/24 06:10:04;;;;;;;18.48;4.40;;;;;;;;;;4973559;28;20043;-56
2022/12/24 06:12:30;;;;;;;14.80;4.15;;;;;;;;;;4959334;28;20170;-57
2022/12/24 06:14:55;;;;;;;18.67;4.40;;;;;;;;;;4972974;28;20022;-56
2022/12/24 06:17:20;;;;;;;14.40;3.97;;;;;;;;;;4971971;28;20030;-56
2022/12/24 06:19:46;;;;;;;16.45;3.92;;;;;;;;;;4973169;28;20066;-57
2022/12/24 06:22:11;;;;;;;21.52;4.10;;;;;;;;;;4972144;28;20078;-58
2022/12/24 06:24:36;;;;;;;21.67;4.68;;;;;;;;;;4973556;28;20027;-57
2022/12/24 06:27:01;;;;;;;17.38;5.03;;;;;;;;;;4973682;28;20038;-57
2022/12/24 06:29:27;;;;;;;17.67;4.80;;;;;;;;;;4975627;28;20744;-58
2022/12/24 06:31:52;;;;;;;19.45;5.05;;;;;;;;;;4973393;28;20038;-58
2022/12/24 06:34:17;;;;;;;25.35;5.40;;;;;;;;;;4975453;28;20085;-56
2022/12/24 06:36:43;;;;;;;24.23;5.00;;;;;;;;;;4958736;28;20034;-56
2022/12/24 06:39:08;;;;;;;21.38;5.63;;;;;;;;;;4972578;28;20034;-59
2022/12/24 06:41:33;;;;;;;20.27;5.22;;;;;;;;;;4972638;28;20074;-55
2022/12/24 06:43:59;;;;;;;20.48;5.80;;;;;;;;;;4970061;28;20512;-55
2022/12/24 06:46:24;;;;;;;20.48;4.95;;;;;;;;;;4970558;28;20466;-54
2022/12/24 06:48:50;;;;;;;28.25;5.22;;;;;;;;;;4971484;28;20035;-58
2022/12/24 06:51:16;;;;;;;21.88;5.00;;;;;;;;;;4973242;28;20464;-56
2022/12/24 06:53:41;;;;;;;17.48;4.97;;;;;;;;;;4969351;28;20124;-57
2022/12/24 06:56:08;;;;;;;35.55;9.73;;;;;;;;;;4973790;28;20030;-56
2022/12/24 06:58:34;;;;;;;26.25;9.40;;;;;;;;;;4972992;28;20038;-57
2022/12/24 07:01:04;;;;;;;21.60;7.50;;;;;;;;;;4972863;28;20039;-57
2022/12/24 07:03:29;;;;;;;17.73;5.43;;;;;;;;;;4971617;28;20030;-56
2022/12/24 07:05:55;;;;;;;20.00;6.05;;;;;;;;;;4972725;28;20023;-56
2022/12/24 07:08:20;;;;;;;17.88;6.28;;;;;;;;;;4968367;28;20038;-57
2022/12/24 07:10:47;;;;;;;12.75;5.40;;;;;;;;;;4972465;28;20041;-54
2022/12/24 07:13:12;;;;;;;21.90;5.95;;;;;;;;;;4971747;28;20026;-52
2022/12/24 07:15:37;;;;;;;13.00;4.60;;;;;;;;;;4973417;28;20085;-55
2022/12/24 07:18:03;;;;;;;17.00;4.70;;;;;;;;;;4972179;28;20064;-56
2022/12/24 07:20:28;;;;;;;21.25;5.03;;;;;;;;;;4970719;28;20048;-57
2022/12/24 07:22:53;;;;;;;20.15;5.50;;;;;;;;;;4972086;28;20609;-54
2022/12/24 07:25:19;;;;;;;17.40;5.47;;;;;;;;;;4972277;28;20067;-57
2022/12/24 07:27:44;;;;;;;11.35;4.88;;;;;;;;;;4971560;28;20042;-56
2022/12/24 07:30:10;;;;;;;15.82;4.65;;;;;;;;;;4972117;28;20026;-55
2022/12/24 07:32:35;;;;;;;19.77;5.53;;;;;;;;;;4981032;28;20030;-55
2022/12/24 07:35:01;;;;;;;18.05;4.88;;;;;;;;;;4972568;28;20101;-57
2022/12/24 07:37:26;;;;;;;10.70;4.47;;;;;;;;;;4972792;28;20397;-53
2022/12/24 07:39:51;;;;;;;16.42;5.20;;;;;;;;;;4974366;28;21035;-56
2022/12/24 07:42:17;;;;;;;15.90;5.03;;;;;;;;;;4978418;28;20054;-55
2022/12/24 07:44:42;;;;;;;16.40;5.32;;;;;;;;;;4971248;28;20129;-56
2022/12/24 07:47:08;;;;;;;15.45;5.07;;;;;;;;;;4970965;28;20046;-57
2022/12/24 07:49:35;;;;;;;12.30;5.05;;;;;;;;;;4972305;28;20117;-52
2022/12/24 07:52:00;;;;;;;15.05;4.70;;;;;;;;;;4972024;28;20037;-54
2022/12/24 07:54:25;;;;;;;14.95;4.80;;;;;;;;;;4972906;28;20035;-54
2022/12/24 07:56:51;;;;;;;17.42;4.90;;;;;;;;;;4969177;28;20026;-56
2022/12/24 07:59:19;;;;;;;22.35;4.60;;;;;;;;;;4970531;28;20397;-55
2022/12/24 08:01:44;;;;;;;20.45;4.40;;;;;;;;;;4971339;28;20114;-56
2022/12/24 08:04:09;;;;;;;11.57;4.32;;;;;;;;;;4969817;28;20034;-55
2022/12/24 08:06:35;;;;;;;18.35;6.00;;;;;;;;;;4970609;28;20370;-54
2022/12/24 08:09:00;;;;;;;18.02;5.70;;;;;;;;;;4972359;28;20583;-55
2022/12/24 08:11:25;;;;;;;17.52;6.60;;;;;;;;;;4974530;28;20038;-54
2022/12/24 08:13:51;;;;;;;18.75;6.60;;;;;;;;;;4969317;28;20462;-54
2022/12/24 08:16:16;;;;;;;25.98;7.68;;;;;;;;;;4970365;28;20034;-55
2022/12/24 08:18:41;;;;;;;18.95;7.47;;;;;;;;;;4971077;28;20114;-54
2022/12/24 08:21:07;;;;;;;29.38;8.60;;;;;;;;;;4971469;28;20791;-56
2022/12/24 08:23:33;;;;;;;23.67;8.38;;;;;;;;;;4971623;28;20030;-56
2022/12/24 08:25:58;;;;;;;22.73;9.70;;;;;;;;;;4969370;28;20031;-55
2022/12/24 08:28:23;;;;;;;16.92;8.77;;;;;;;;;;4969292;28;20112;-53
2022/12/24 08:30:49;;;;;;;22.33;7.00;;;;;;;;;;4972911;28;20073;-56
2022/12/24 08:33:15;;;;;;;20.25;6.30;;;;;;;;;;4968798;28;20430;-55
2022/12/24 08:35:45;;;;;;;34.03;7.10;;;;;;;;;;4971463;28;20045;-55
2022/12/24 08:38:10;;;;;;;26.90;7.30;;;;;;;;;;4969123;28;20129;-55
2022/12/24 08:40:36;;;;;;;20.73;8.20;;;;;;;;;;4966650;28;20034;-57
2022/12/24 08:43:01;;;;;;;23.35;9.38;;;;;;;;;;4966912;28;20042;-56
2022/12/24 08:45:27;;;;;;;21.48;10.10;;;;;;;;;;4970760;28;20034;-57
2022/12/24 08:47:52;;;;;;;27.45;9.45;;;;;;;;;;4977855;28;20673;-55
2022/12/24 08:50:17;;;;;;;23.40;10.20;;;;;;;;;;4970280;28;20043;-56
2022/12/24 08:52:42;;;;;;;22.85;10.52;;;;;;;;;;4969505;28;20030;-55
2022/12/24 08:55:08;;;;;;;20.23;8.73;;;;;;;;;;4973691;28;20038;-54
2022/12/24 08:57:36;;;;;;;21.40;9.48;;;;;;;;;;4970278;28;20057;-55
2022/12/24 09:00:03;;;;;;;23.42;8.80;;;;;;;;;;4972593;28;20045;-57
2022/12/24 09:02:29;;;;;;;21.03;8.40;;;;;;;;;;4974595;28;20030;-53
2022/12/24 09:04:54;;;;;;;18.40;8.20;;;;;;;;;;4973758;28;20031;-56
2022/12/24 09:07:19;;;;;;;24.27;7.95;;;;;;;;;;4976212;28;20042;-57
2022/12/24 09:09:45;;;;;;;28.63;7.75;;;;;;;;;;4975304;28;20038;-53
2022/12/24 09:12:10;;;;;;;18.05;8.07;;;;;;;;;;4974010;28;20124;-57
2022/12/24 09:14:35;;;;;;;23.92;8.95;;;;;;;;;;4976405;28;20592;-54
2022/12/24 09:17:01;;;;;;;26.90;11.63;;;;;;;;;;4980101;28;20042;-58
2022/12/24 09:19:26;;;;;;;49.10;26.17;;;;;;;;;;4974071;28;20043;-55
2022/12/24 09:21:52;;;;;;;36.05;18.30;;;;;;;;;;4977620;28;20035;-55
2022/12/24 09:24:17;;;;;;;34.00;15.80;;;;;;;;;;4976274;28;20026;-55
2022/12/24 09:26:44;;;;;;;29.70;10.10;;;;;;;;;;4975505;28;20034;-54
2022/12/24 09:29:10;;;;;;;22.05;7.85;;;;;;;;;;4974765;28;20101;-54
2022/12/24 09:31:35;;;;;;;26.05;8.32;;;;;;;;;;4974654;28;20038;-55
2022/12/24 09:34:00;;;;;;;22.67;8.63;;;;;;;;;;4975313;28;20059;-55
2022/12/24 09:36:26;;;;;;;25.30;10.30;;;;;;;;;;4974361;28;20085;-55
2022/12/24 09:38:51;;;;;;;27.52;10.05;;;;;;;;;;4974274;28;20116;-53
2022/12/24 09:41:35;;;;;;;30.65;8.93;;;;;;;;;;4974090;28;20039;-56
2022/12/24 09:44:27;;;;;;;24.58;8.50;;;;;;;;;;4974336;28;20074;-55
2022/12/24 09:46:52;;;;;;;26.17;6.68;;;;;;;;;;4973459;28;20159;-56
2022/12/24 09:49:35;;;;;;;27.10;6.53;;;;;;;;;;4971707;28;21753;-50
2022/12/24 09:52:05;;;;;;;17.08;5.70;;;;;;;;;;4961402;28;20027;-54
2022/12/24 09:54:50;;;;;;;25.95;6.18;;;;;;;;;;4970226;28;20425;-53
2022/12/24 09:57:28;;;;;;;20.13;4.20;;;;;;;;;;4971447;28;20054;-57
2022/12/24 09:59:54;;;;;;;22.52;5.35;;;;;;;;;;4969919;28;20042;-56
2022/12/24 10:02:19;;;;;;;20.55;3.85;;;;;;;;;;4970056;28;20041;-53
2022/12/24 10:04:46;;;;;;;16.10;4.15;;;;;;;;;;4978370;28;20026;-57
2022/12/24 10:07:23;;;;;;;18.15;4.85;;;;;;;;;;4967800;28;20034;-56
2022/12/24 10:10:01;;;;;;;17.80;3.63;;;;;;;;;;4977905;28;20093;-55
2022/12/24 10:12:44;;;;;;;18.27;3.67;;;;;;;;;;4981765;28;20046;-55
2022/12/24 10:15:28;;;;;;;21.80;4.47;;;;;;;;;;4957409;28;20018;-53
2022/12/24 10:18:00;;;;;;;17.40;3.70;;;;;;;;;;4987232;28;20142;-54
2022/12/24 10:20:28;;;;;;;16.15;3.53;;;;;;;;;;4969833;28;20035;-57
2022/12/24 10:23:05;;;;;;;17.70;3.65;;;;;;;;;;4963341;28;20089;-55
2022/12/24 10:25:30;;;;;;;11.85;3.10;;;;;;;;;;4978111;28;20574;-56
2022/12/24 10:27:58;;;;;;;13.63;3.33;;;;;;;;;;4976082;28;20038;-57
2022/12/24 10:30:24;;;;;;;13.63;4.65;;;;;;;;;;4970791;28;20042;-59
2022/12/24 10:32:50;;;;;;;16.40;3.78;;;;;;;;;;4972579;28;20877;-55
2022/12/24 10:35:16;;;;;;;17.65;3.65;;;;;;;;;;4967319;28;20038;-52
2022/12/24 10:37:42;;;;;;;15.35;3.55;;;;;;;;;;4971492;28;20473;-55
2022/12/24 10:40:13;;;;;;;19.73;4.60;;;;;;;;;;4968006;28;20043;-52
2022/12/24 10:42:41;;;;;;;18.67;4.78;;;;;;;;;;4967668;28;20031;-52
2022/12/24 10:45:12;;;;;;;24.77;5.47;;;;;;;;;;4972883;28;20033;-54
2022/12/24 10:47:39;;;;;;;21.20;3.88;;;;;;;;;;4969489;28;20118;-57
2022/12/24 10:50:12;;;;;;;13.90;3.70;;;;;;;;;;4974415;28;20034;-56
2022/12/24 10:52:39;;;;;;;17.58;5.20;;;;;;;;;;4967872;28;20030;-53
2022/12/24 10:55:07;;;;;;;22.43;7.17;;;;;;;;;;4969733;28;20037;-55
2022/12/24 10:57:36;;;;;;;21.48;6.30;;;;;;;;;;4974680;28;20817;-55
2022/12/24 11:00:03;;;;;;;24.13;6.07;;;;;;;;;;4965200;28;20545;-54
2022/12/24 11:02:33;;;;;;;17.25;3.75;;;;;;;;;;4967948;28;20026;-54
2022/12/24 11:04:59;;;;;;;18.45;4.38;;;;;;;;;;4967065;28;20051;-56
2022/12/24 11:07:25;;;;;;;20.60;4.28;;;;;;;;;;4967877;28;20434;-55
2022/12/24 11:10:00;;;;;;;18.92;4.05;;;;;;;;;;4971904;28;20038;-54
2022/12/24 11:12:31;;;;;;;19.35;3.78;;;;;;;;;;4964049;28;20122;-55
2022/12/24 11:15:04;;;;;;;22.08;5.45;;;;;;;;;;4964461;28;20470;-54
2022/12/24 11:17:30;;;;;;;18.92;4.05;;;;;;;;;;4974922;28;20081;-55
2022/12/24 11:19:57;;;;;;;17.70;4.28;;;;;;;;;;4966156;28;20046;-57
2022/12/24 11:22:24;;;;;;;23.10;6.22;;;;;;;;;;4970916;28;20142;-55
2022/12/24 11:24:57;;;;;;;21.10;6.13;;;;;;;;;;4966314;28;20703;-54
2022/12/24 11:27:29;;;;;;;20.33;4.15;;;;;;;;;;4949929;28;20034;-55
2022/12/24 11:30:13;;;;;;;16.15;4.57;;;;;;;;;;4974711;28;20042;-56
2022/12/24 11:32:38;;;;;;;14.50;3.92;;;;;;;;;;4965494;28;20026;-56
2022/12/24 11:35:08;;;;;;;27.50;4.88;;;;;;;;;;4965894;28;20381;-57
2022/12/24 11:37:33;;;;;;;21.25;4.10;;;;;;;;;;4970339;28;20105;-56
2022/12/24 11:40:00;;;;;;;15.60;3.47;;;;;;;;;;4970419;28;20049;-55
2022/12/24 11:42:30;;;;;;;17.73;4.07;;;;;;;;;;4986430;28;20034;-53
2022/12/24 11:44:56;;;;;;;16.40;3.83;;;;;;;;;;4964414;28;20026;-55
2022/12/24 11:47:35;;;;;;;18.13;3.78;;;;;;;;;;4966735;28;20520;-57
2022/12/24 11:50:20;;;;;;;20.10;3.70;;;;;;;;;;4977968;28;20042;-58
2022/12/24 11:52:47;;;;;;;19.38;3.70;;;;;;;;;;4967227;28;20027;-55
2022/12/24 11:55:18;;;;;;;21.25;5.10;;;;;;;;;;4968686;28;20023;-57
2022/12/24 11:57:54;;;;;;;27.40;10.13;;;;;;;;;;4970735;28;20033;-54
2022/12/24 12:00:20;;;;;;;24.95;4.95;;;;;;;;;;4967915;28;20623;-54
2022/12/24 12:02:46;;;;;;;24.73;4.57;;;;;;;;;;4971670;28;20022;-57
2022/12/24 12:05:16;;;;;;;28.65;4.78;;;;;;;;;;4967516;28;20039;-55
2022/12/24 12:07:43;;;;;;;18.58;3.70;;;;;;;;;;4966034;28;20110;-53
2022/12/24 12:10:17;;;;;;;17.83;3.83;;;;;;;;;;4971018;28;20516;-56
2022/12/24 12:12:51;;;;;;;16.85;3.83;;;;;;;;;;4969971;28;20474;-53
2022/12/24 12:15:20;;;;;;;18.15;4.00;;;;;;;;;;4964921;28;20114;-56
2022/12/24 12:17:53;;;;;;;26.52;4.43;;;;;;;;;;4970640;28;20757;-56
2022/12/24 12:20:30;;;;;;;19.75;4.10;;;;;;;;;;4967550;28;20043;-54
2022/12/24 12:23:14;;;;;;;29.13;4.65;;;;;;;;;;4970479;28;20031;-57
2022/12/24 12:25:44;;;;;;;18.05;3.92;;;;;;;;;;4974829;28;20031;-55
2022/12/24 12:28:17;;;;;;;20.27;3.70;;;;;;;;;;4969081;28;20030;-56
2022/12/24 12:30:43;;;;;;;25.50;3.75;;;;;;;;;;4969899;28;20386;-51
2022/12/24 12:33:15;;;;;;;21.67;4.30;;;;;;;;;;4969537;28;20026;-56
2022/12/24 12:35:42;;;;;;;19.10;4.20;;;;;;;;;;4971307;28;20658;-56
2022/12/24 12:38:12;;;;;;;28.98;4.47;;;;;;;;;;4975648;28;20060;-56
2022/12/24 12:40:56;;;;;;;15.63;4.38;;;;;;;;;;4974553;28;20042;-57
2022/12/24 12:43:24;;;;;;;28.88;5.28;;;;;;;;;;4972927;28;20184;-57
2022/12/24 12:46:09;;;;;;;25.33;4.35;;;;;;;;;;4972466;28;20488;-55
2022/12/24 12:48:45;;;;;;;24.73;5.00;;;;;;;;;;4940148;28;20043;-54
2022/12/24 12:51:34;;;;;;;23.67;4.93;;;;;;;;;;4973999;28;20037;-54
2022/12/24 12:54:05;;;;;;;32.72;5.15;;;;;;;;;;4969389;28;20050;-54
2022/12/24 12:56:35;;;;;;;26.95;5.22;;;;;;;;;;4970472;28;20026;-55
2022/12/24 12:59:09;;;;;;;24.45;4.25;;;;;;;;;;4975728;28;20815;-53
2022/12/24 13:01:54;;;;;;;24.83;5.00;;;;;;;;;;4970655;28;20081;-54
2022/12/24 13:04:26;;;;;;;21.58;3.70;;;;;;;;;;4963015;28;20054;-54
2022/12/24 13:07:10;;;;;;;28.48;5.97;;;;;;;;;;4972886;28;20676;-53
2022/12/24 13:09:52;;;;;;;18.55;4.28;;;;;;;;;;4969327;28;20175;-55
2022/12/24 13:12:30;;;;;;;19.67;4.70;;;;;;;;;;4970380;28;20031;-54
2022/12/24 13:15:10;;;;;;;23.77;4.60;;;;;;;;;;4988824;28;20200;-56
2022/12/24 13:17:50;;;;;;;17.30;3.85;;;;;;;;;;4968690;28;20026;-55
2022/12/24 13:20:18;;;;;;;21.95;4.43;;;;;;;;;;4966602;28;20066;-56
2022/12/24 13:22:53;;;;;;;20.08;4.38;;;;;;;;;;4971542;28;20030;-55
2022/12/24 13:25:24;;;;;;;22.60;5.68;;;;;;;;;;4981117;28;20041;-57
2022/12/24 13:27:50;;;;;;;23.65;6.00;;;;;;;;;;4971000;28;20035;-59
2022/12/24 13:30:35;;;;;;;22.17;6.03;;;;;;;;;;4979210;28;20040;-55
2022/12/24 13:33:02;;;;;;;24.85;5.43;;;;;;;;;;4967994;28;20038;-56
2022/12/24 13:35:32;;;;;;;20.38;5.63;;;;;;;;;;4975058;28;20114;-57
2022/12/24 13:38:16;;;;;;;27.20;5.78;;;;;;;;;;4964463;28;20027;-56
2022/12/24 13:40:41;;;;;;;27.65;7.60;;;;;;;;;;4967932;28;20039;-54
2022/12/24 13:43:08;;;;;;;26.92;7.13;;;;;;;;;;4972725;28;20034;-56
2022/12/24 13:45:37;;;;;;;24.60;5.95;;;;;;;;;;4971368;28;20097;-53
2022/12/24 13:48:02;;;;;;;24.15;5.07;;;;;;;;;;4949715;28;20210;-58
2022/12/24 13:50:35;;;;;;;27.00;5.40;;;;;;;;;;4972496;28;20535;-57
2022/12/24 13:53:01;;;;;;;21.60;5.88;;;;;;;;;;4970718;28;20034;-55
2022/12/24 13:55:27;;;;;;;22.23;5.15;;;;;;;;;;4972466;28;20048;-56
2022/12/24 13:58:01;;;;;;;25.45;5.50;;;;;;;;;;4968643;28;20027;-58
2022/12/24 14:00:32;;;;;;;35.72;12.95;;;;;;;;;;4973047;28;20269;-54
2022/12/24 14:03:06;;;;;;;33.67;10.20;;;;;;;;;;4972596;28;20026;-54
2022/12/24 14:05:31;;;;;;;24.67;8.07;;;;;;;;;;4967826;28;20062;-55
2022/12/24 14:07:57;;;;;;;20.40;5.65;;;;;;;;;;4970580;28;20069;-53
2022/12/24 14:10:24;;;;;;;23.98;6.07;;;;;;;;;;4966759;28;20038;-56
2022/12/24 14:12:51;;;;;;;19.85;6.65;;;;;;;;;;4965524;28;20023;-56
2022/12/24 14:15:35;;;;;;;28.48;6.75;;;;;;;;;;4972454;28;20478;-55
2022/12/24 14:18:01;;;;;;;23.63;7.55;;;;;;;;;;4961912;28;20030;-57
2022/12/24 14:20:26;;;;;;;23.02;7.93;;;;;;;;;;4964493;28;20093;-56
2022/12/24 14:22:52;;;;;;;25.77;7.43;;;;;;;;;;4971068;28;20731;-56
2022/12/24 14:25:22;;;;;;;24.90;7.20;;;;;;;;;;4964669;28;20038;-54
2022/12/24 14:27:50;;;;;;;25.60;8.57;;;;;;;;;;4975125;28;20031;-57
2022/12/24 14:30:16;;;;;;;22.90;8.77;;;;;;;;;;4966916;28;20022;-55
2022/12/24 14:32:41;;;;;;;38.38;11.38;;;;;;;;;;4968313;28;20019;-54
2022/12/24 14:35:09;;;;;;;37.13;7.32;;;;;;;;;;4971524;28;20066;-55
2022/12/24 14:37:35;;;;;;;25.05;6.80;;;;;;;;;;4965626;28;20023;-55
2022/12/24 14:40:03;;;;;;;18.55;6.32;;;;;;;;;;4972367;28;20042;-55
2022/12/24 14:42:33;;;;;;;28.45;6.20;;;;;;;;;;4966800;28;20583;-55
2022/12/24 14:45:05;;;;;;;27.95;7.28;;;;;;;;;;4967245;28;20754;-57